sensor_id;sensor_type;location;lat;lon;timestamp;pressure;altitude;pressure_sealevel;temperature;humidity
78182;BME280;67441;50.116;8.696;2023-04-24T00:00:38;99127.16;;;12.11;70.14
78182;BME280;67441;50.116;8.696;2023-04-24T00:01:06;99153.34;;;12.26;70.10
78182;BME280;67441;50.116;8.696;2023-04-24T00:01:33;99091.31;;;11.98;69.98
78182;BME280;67441;50.116;8.696;2023-04-24T00:01:59;99150.69;;;12.26;69.80
78182;BME280;67441;50.116;8.696;2023-04-24T00:02:26;99154.94;;;12.35;69.61
78182;BME280;67441;50.116;8.696;2023-04-24T00:02:54;99147.94;;;12.34;69.33
78182;BME280;67441;50.116;8.696;2023-04-24T00:03:23;99151.41;;;12.36;69.49
78182;BME280;67441;50.116;8.696;2023-04-24T00:03:49;99148.88;;;12.30;69.67
78182;BME280;67441;50.116;8.696;2023-04-24T00:04:15;99153.34;;;12.25;69.69
78182;BME280;67441;50.116;8.696;2023-04-24T00:04:42;99128.97;;;12.07;69.90
78182;BME280;67441;50.116;8.696;2023-04-24T00:05:09;99150.75;;;12.22;70.00
78182;BME280;67441;50.116;8.696;2023-04-24T00:05:35;99135.78;;;12.22;70.14
78182;BME280;67441;50.116;8.696;2023-04-24T00:06:01;99122.06;;;12.00;70.24
78182;BME280;67441;50.116;8.696;2023-04-24T00:06:28;99116.03;;;11.92;70.11
78182;BME280;67441;50.116;8.696;2023-04-24T00:06:59;99107.19;;;11.96;70.25
78182;BME280;67441;50.116;8.696;2023-04-24T00:07:25;99152.56;;;12.18;70.36
78182;BME280;67441;50.116;8.696;2023-04-24T00:07:51;99145.56;;;12.17;69.99
78182;BME280;67441;50.116;8.696;2023-04-24T00:08:18;99145.50;;;12.20;69.89
78182;BME280;67441;50.116;8.696;2023-04-24T00:08:44;99132.53;;;12.06;70.18
78182;BME280;67441;50.116;8.696;2023-04-24T00:09:10;99140.28;;;12.16;70.14
78182;BME280;67441;50.116;8.696;2023-04-24T00:09:36;99105.41;;;11.97;70.41
78182;BME280;67441;50.116;8.696;2023-04-24T00:10:01;99135.81;;;12.19;70.11
78182;BME280;67441;50.116;8.696;2023-04-24T00:10:30;99081.06;;;11.76;69.98
78182;BME280;67441;50.116;8.696;2023-04-24T00:10:55;99143.03;;;12.08;70.47
78182;BME280;67441;50.116;8.696;2023-04-24T00:11:21;99117.72;;;11.95;70.90
78182;BME280;67441;50.116;8.696;2023-04-24T00:11:46;99143.91;;;12.08;70.60
78182;BME280;67441;50.116;8.696;2023-04-24T00:12:12;99140.44;;;12.06;70.47
78182;BME280;67441;50.116;8.696;2023-04-24T00:12:38;99137.81;;;12.06;70.72
78182;BME280;67441;50.116;8.696;2023-04-24T00:13:04;99138.56;;;12.14;70.31
78182;BME280;67441;50.116;8.696;2023-04-24T00:13:30;99137.63;;;12.17;70.45
78182;BME280;67441;50.116;8.696;2023-04-24T00:13:56;99143.75;;;12.21;70.13
78182;BME280;67441;50.116;8.696;2023-04-24T00:14:22;99138.56;;;12.14;70.06
78182;BME280;67441;50.116;8.696;2023-04-24T00:14:48;99132.50;;;12.08;70.22
78182;BME280;67441;50.116;8.696;2023-04-24T00:15:14;99141.19;;;12.16;70.45
78182;BME280;67441;50.116;8.696;2023-04-24T00:15:40;99148.31;;;12.08;70.72
78182;BME280;67441;50.116;8.696;2023-04-24T00:16:06;99116.13;;;11.84;70.84
78182;BME280;67441;50.116;8.696;2023-04-24T00:16:31;99143.88;;;12.11;70.76
78182;BME280;67441;50.116;8.696;2023-04-24T00:16:57;99120.31;;;11.99;70.95
78182;BME280;67441;50.116;8.696;2023-04-24T00:17:22;99148.19;;;12.16;70.62
78182;BME280;67441;50.116;8.696;2023-04-24T00:17:48;99140.22;;;12.20;70.30
78182;BME280;67441;50.116;8.696;2023-04-24T00:18:14;99146.31;;;12.25;70.47
78182;BME280;67441;50.116;8.696;2023-04-24T00:18:39;99141.03;;;12.27;70.59
78182;BME280;67441;50.116;8.696;2023-04-24T00:19:05;99141.06;;;12.24;70.56
78182;BME280;67441;50.116;8.696;2023-04-24T00:19:31;99092.25;;;11.95;70.31
78182;BME280;67441;50.116;8.696;2023-04-24T00:19:57;99140.28;;;12.17;70.74
78182;BME280;67441;50.116;8.696;2023-04-24T00:20:27;99115.06;;;11.99;71.06
78182;BME280;67441;50.116;8.696;2023-04-24T00:20:55;99139.44;;;12.13;70.94
78182;BME280;67441;50.116;8.696;2023-04-24T00:21:20;99135.16;;;12.06;71.27
78182;BME280;67441;50.116;8.696;2023-04-24T00:21:46;99134.19;;;12.12;71.31
78182;BME280;67441;50.116;8.696;2023-04-24T00:22:15;99137.75;;;12.09;71.33
78182;BME280;67441;50.116;8.696;2023-04-24T00:22:40;99146.50;;;12.11;71.29
78182;BME280;67441;50.116;8.696;2023-04-24T00:23:06;99112.44;;;11.96;71.60
78182;BME280;67441;50.116;8.696;2023-04-24T00:23:32;99140.41;;;12.08;71.32
78182;BME280;67441;50.116;8.696;2023-04-24T00:23:58;99133.34;;;12.10;71.44
78182;BME280;67441;50.116;8.696;2023-04-24T00:24:23;99134.13;;;12.17;71.44
78182;BME280;67441;50.116;8.696;2023-04-24T00:24:49;99130.56;;;12.21;71.37
78182;BME280;67441;50.116;8.696;2023-04-24T00:25:15;99134.09;;;12.20;71.34
78182;BME280;67441;50.116;8.696;2023-04-24T00:25:40;99121.00;;;12.12;71.55
78182;BME280;67441;50.116;8.696;2023-04-24T00:26:06;99126.19;;;12.18;71.49
78182;BME280;67441;50.116;8.696;2023-04-24T00:26:31;99050.28;;;11.77;71.13
78182;BME280;67441;50.116;8.696;2023-04-24T00:26:57;99125.28;;;12.21;71.45
78182;BME280;67441;50.116;8.696;2023-04-24T00:27:23;99062.47;;;11.88;71.10
78182;BME280;67441;50.116;8.696;2023-04-24T00:27:49;99126.97;;;12.26;71.47
78182;BME280;67441;50.116;8.696;2023-04-24T00:28:15;99106.09;;;12.09;71.60
78182;BME280;67441;50.116;8.696;2023-04-24T00:28:40;99133.16;;;12.24;71.47
78182;BME280;67441;50.116;8.696;2023-04-24T00:29:06;99066.84;;;11.88;71.54
78182;BME280;67441;50.116;8.696;2023-04-24T00:29:32;99120.94;;;12.17;71.47
78182;BME280;67441;50.116;8.696;2023-04-24T00:29:58;99101.00;;;11.97;71.53
78182;BME280;67441;50.116;8.696;2023-04-24T00:30:24;99131.63;;;12.07;72.12
78182;BME280;67441;50.116;8.696;2023-04-24T00:30:49;99130.66;;;12.13;71.79
78182;BME280;67441;50.116;8.696;2023-04-24T00:31:14;99128.03;;;12.13;72.04
78182;BME280;67441;50.116;8.696;2023-04-24T00:31:40;99126.34;;;12.09;71.99
78182;BME280;67441;50.116;8.696;2023-04-24T00:32:05;99128.03;;;12.11;71.78
78182;BME280;67441;50.116;8.696;2023-04-24T00:32:31;99108.78;;;12.05;71.95
78182;BME280;67441;50.116;8.696;2023-04-24T00:32:57;99128.88;;;12.15;71.81
78182;BME280;67441;50.116;8.696;2023-04-24T00:33:23;99096.78;;;11.85;71.51
78182;BME280;67441;50.116;8.696;2023-04-24T00:33:48;99125.47;;;12.07;72.09
78182;BME280;67441;50.116;8.696;2023-04-24T00:34:14;99121.13;;;12.04;72.23
78182;BME280;67441;50.116;8.696;2023-04-24T00:34:41;99123.75;;;12.06;72.24
78182;BME280;67441;50.116;8.696;2023-04-24T00:35:07;99122.81;;;12.08;72.14
78182;BME280;67441;50.116;8.696;2023-04-24T00:35:32;99131.53;;;12.12;71.95
78182;BME280;67441;50.116;8.696;2023-04-24T00:35:58;99119.34;;;12.06;71.90
78182;BME280;67441;50.116;8.696;2023-04-24T00:36:25;99070.56;;;11.75;71.87
78182;BME280;67441;50.116;8.696;2023-04-24T00:36:52;99089.75;;;11.86;72.15
78182;BME280;67441;50.116;8.696;2023-04-24T00:37:17;99123.84;;;11.98;72.10
78182;BME280;67441;50.116;8.696;2023-04-24T00:37:43;99116.81;;;11.99;72.16
78182;BME280;67441;50.116;8.696;2023-04-24T00:38:13;99116.75;;;12.03;72.36
78182;BME280;67441;50.116;8.696;2023-04-24T00:38:43;99119.41;;;12.00;71.91
78182;BME280;67441;50.116;8.696;2023-04-24T00:39:08;99117.66;;;12.01;72.17
78182;BME280;67441;50.116;8.696;2023-04-24T00:39:34;99114.19;;;11.99;71.92
78182;BME280;67441;50.116;8.696;2023-04-24T00:40:09;99115.84;;;12.04;72.19
78182;BME280;67441;50.116;8.696;2023-04-24T00:40:35;99125.44;;;12.08;72.11
78182;BME280;67441;50.116;8.696;2023-04-24T00:41:00;99120.06;;;12.16;71.90
78182;BME280;67441;50.116;8.696;2023-04-24T00:41:26;99098.28;;;12.03;71.82
78182;BME280;67441;50.116;8.696;2023-04-24T00:41:51;99119.34;;;12.05;72.07
78182;BME280;67441;50.116;8.696;2023-04-24T00:42:18;99093.25;;;11.86;71.83
78182;BME280;67441;50.116;8.696;2023-04-24T00:42:43;99112.31;;;12.05;72.00
78182;BME280;67441;50.116;8.696;2023-04-24T00:43:11;99100.25;;;11.87;71.95
78182;BME280;67441;50.116;8.696;2023-04-24T00:43:37;99071.47;;;11.71;71.94
78182;BME280;67441;50.116;8.696;2023-04-24T00:44:02;99115.06;;;11.99;71.63
78182;BME280;67441;50.116;8.696;2023-04-24T00:44:28;99097.66;;;11.83;71.77
78182;BME280;67441;50.116;8.696;2023-04-24T00:44:53;99125.59;;;11.98;71.97
78182;BME280;67441;50.116;8.696;2023-04-24T00:45:19;99099.44;;;11.85;71.93
78182;BME280;67441;50.116;8.696;2023-04-24T00:45:44;99119.53;;;11.91;71.72
78182;BME280;67441;50.116;8.696;2023-04-24T00:46:10;99057.66;;;11.55;72.00
78182;BME280;67441;50.116;8.696;2023-04-24T00:46:36;99117.78;;;11.93;71.99
78182;BME280;67441;50.116;8.696;2023-04-24T00:47:01;99089.09;;;11.69;71.96
78182;BME280;67441;50.116;8.696;2023-04-24T00:47:26;99115.09;;;11.95;72.27
78182;BME280;67441;50.116;8.696;2023-04-24T00:47:53;99086.34;;;11.76;72.02
78182;BME280;67441;50.116;8.696;2023-04-24T00:48:19;99122.97;;;11.99;71.80
78182;BME280;67441;50.116;8.696;2023-04-24T00:48:46;99121.22;;;11.97;71.71
78182;BME280;67441;50.116;8.696;2023-04-24T00:49:13;99119.41;;;12.00;71.43
78182;BME280;67441;50.116;8.696;2023-04-24T00:49:39;99105.44;;;11.94;71.50
78182;BME280;67441;50.116;8.696;2023-04-24T00:50:05;99121.13;;;12.04;71.46
78182;BME280;67441;50.116;8.696;2023-04-24T00:50:32;99121.16;;;12.01;71.44
78182;BME280;67441;50.116;8.696;2023-04-24T00:50:57;99119.31;;;12.08;71.28
78182;BME280;67441;50.116;8.696;2023-04-24T00:51:24;99096.69;;;11.93;71.20
78182;BME280;67441;50.116;8.696;2023-04-24T00:51:50;99062.69;;;11.70;71.18
78182;BME280;67441;50.116;8.696;2023-04-24T00:52:16;99093.25;;;11.86;71.35
78182;BME280;67441;50.116;8.696;2023-04-24T00:52:42;99112.41;;;11.99;71.39
78182;BME280;67441;50.116;8.696;2023-04-24T00:53:08;99118.59;;;11.97;71.40
78182;BME280;67441;50.116;8.696;2023-04-24T00:53:34;99102.88;;;11.89;71.50
78182;BME280;67441;50.116;8.696;2023-04-24T00:54:00;99111.59;;;11.94;70.96
78182;BME280;67441;50.116;8.696;2023-04-24T00:54:25;99111.63;;;11.93;71.16
78182;BME280;67441;50.116;8.696;2023-04-24T00:54:51;99111.66;;;11.89;71.56
78182;BME280;67441;50.116;8.696;2023-04-24T00:55:17;99108.19;;;11.86;71.51
78182;BME280;67441;50.116;8.696;2023-04-24T00:55:42;99104.66;;;11.88;71.66
78182;BME280;67441;50.116;8.696;2023-04-24T00:56:09;99067.13;;;11.68;71.59
78182;BME280;67441;50.116;8.696;2023-04-24T00:56:34;99080.19;;;11.76;71.55
78182;BME280;67441;50.116;8.696;2023-04-24T00:57:00;99102.81;;;11.94;71.38
78182;BME280;67441;50.116;8.696;2023-04-24T00:57:26;99108.13;;;11.92;71.55
78182;BME280;67441;50.116;8.696;2023-04-24T00:57:52;99095.88;;;11.86;71.36
78182;BME280;67441;50.116;8.696;2023-04-24T00:58:18;99039.28;;;11.50;71.21
78182;BME280;67441;50.116;8.696;2023-04-24T00:58:44;99101.09;;;11.91;71.26
78182;BME280;67441;50.116;8.696;2023-04-24T00:59:10;99101.13;;;11.89;71.53
78182;BME280;67441;50.116;8.696;2023-04-24T00:59:37;99099.31;;;11.93;71.27
78182;BME280;67441;50.116;8.696;2023-04-24T01:00:03;99100.16;;;11.95;71.17
78182;BME280;67441;50.116;8.696;2023-04-24T01:00:31;99099.28;;;11.96;71.34
78182;BME280;67441;50.116;8.696;2023-04-24T01:00:59;99097.47;;;12.00;71.16
78182;BME280;67441;50.116;8.696;2023-04-24T01:01:26;99061.75;;;11.76;70.87
78182;BME280;67441;50.116;8.696;2023-04-24T01:01:51;99094.00;;;11.96;71.24
78182;BME280;67441;50.116;8.696;2023-04-24T01:02:17;99095.59;;;12.06;71.07
78182;BME280;67441;50.116;8.696;2023-04-24T01:02:44;99094.66;;;12.10;70.75
78182;BME280;67441;50.116;8.696;2023-04-24T01:03:10;99058.19;;;11.77;70.95
78182;BME280;67441;50.116;8.696;2023-04-24T01:03:36;99102.69;;;12.01;70.95
78182;BME280;67441;50.116;8.696;2023-04-24T01:04:02;99105.41;;;11.97;70.58
78182;BME280;67441;50.116;8.696;2023-04-24T01:04:27;99099.28;;;11.95;70.67
78182;BME280;67441;50.116;8.696;2023-04-24T01:04:54;99028.66;;;11.53;70.91
78182;BME280;67441;50.116;8.696;2023-04-24T01:05:20;99095.72;;;11.97;70.77
78182;BME280;67441;50.116;8.696;2023-04-24T01:05:45;99088.88;;;11.85;70.86
78182;BME280;67441;50.116;8.696;2023-04-24T01:06:11;99098.41;;;11.94;70.52
78182;BME280;67441;50.116;8.696;2023-04-24T01:06:39;99039.13;;;11.59;70.72
78182;BME280;67441;50.116;8.696;2023-04-24T01:07:05;99100.91;;;12.03;70.71
78182;BME280;67441;50.116;8.696;2023-04-24T01:07:36;99093.78;;;12.10;70.15
78182;BME280;67441;50.116;8.696;2023-04-24T01:08:02;99102.53;;;12.12;70.21
78182;BME280;67441;50.116;8.696;2023-04-24T01:08:28;99093.88;;;12.05;69.62
78182;BME280;67441;50.116;8.696;2023-04-24T01:08:54;99092.06;;;12.09;70.04
78182;BME280;67441;50.116;8.696;2023-04-24T01:09:25;99100.78;;;12.12;69.79
78182;BME280;67441;50.116;8.696;2023-04-24T01:09:51;99113.16;;;12.07;70.28
78182;BME280;67441;50.116;8.696;2023-04-24T01:10:17;99054.69;;;11.78;70.05
78182;BME280;67441;50.116;8.696;2023-04-24T01:10:42;99108.81;;;12.03;70.02
78182;BME280;67441;50.116;8.696;2023-04-24T01:11:09;99073.88;;;11.87;69.94
78182;BME280;67441;50.116;8.696;2023-04-24T01:11:34;99095.72;;;11.99;70.25
78182;BME280;67441;50.116;8.696;2023-04-24T01:12:00;99058.34;;;11.68;70.37
78182;BME280;67441;50.116;8.696;2023-04-24T01:12:26;99055.78;;;11.61;70.78
78182;BME280;67441;50.116;8.696;2023-04-24T01:12:53;99095.06;;;11.81;70.75
78182;BME280;67441;50.116;8.696;2023-04-24T01:13:18;99102.06;;;11.85;71.03
78182;BME280;67441;50.116;8.696;2023-04-24T01:13:44;99082.78;;;11.79;70.69
78182;BME280;67441;50.116;8.696;2023-04-24T01:14:10;99103.69;;;11.94;70.60
78182;BME280;67441;50.116;8.696;2023-04-24T01:14:36;99080.16;;;11.79;70.44
78182;BME280;67441;50.116;8.696;2023-04-24T01:15:03;99088.81;;;11.90;70.41
78182;BME280;67441;50.116;8.696;2023-04-24T01:15:39;99060.13;;;11.65;70.50
78182;BME280;67441;50.116;8.696;2023-04-24T01:16:16;99054.84;;;11.65;70.82
78182;BME280;67441;50.116;8.696;2023-04-24T01:16:42;99078.50;;;11.72;70.86
78182;BME280;67441;50.116;8.696;2023-04-24T01:17:08;99093.28;;;11.82;70.90
78182;BME280;67441;50.116;8.696;2023-04-24T01:17:34;99071.41;;;11.74;70.68
78182;BME280;67441;50.116;8.696;2023-04-24T01:18:00;99087.03;;;11.92;70.36
78182;BME280;67441;50.116;8.696;2023-04-24T01:18:25;99097.56;;;11.92;70.64
78182;BME280;67441;50.116;8.696;2023-04-24T01:18:52;99048.59;;;11.73;70.63
78182;BME280;67441;50.116;8.696;2023-04-24T01:19:17;99092.19;;;11.98;70.45
78182;BME280;67441;50.116;8.696;2023-04-24T01:19:44;99089.59;;;11.97;70.33
78182;BME280;67441;50.116;8.696;2023-04-24T01:20:09;99091.31;;;11.99;70.23
78182;BME280;67441;50.116;8.696;2023-04-24T01:20:36;99074.88;;;11.77;70.41
78182;BME280;67441;50.116;8.696;2023-04-24T01:21:05;99084.47;;;11.83;70.65
78182;BME280;67441;50.116;8.696;2023-04-24T01:21:36;99093.22;;;11.88;70.75
78182;BME280;67441;50.116;8.696;2023-04-24T01:22:02;99096.75;;;11.88;70.64
78182;BME280;67441;50.116;8.696;2023-04-24T01:22:28;99081.63;;;11.98;70.40
78182;BME280;67441;50.116;8.696;2023-04-24T01:22:54;99048.59;;;11.74;70.47
78182;BME280;67441;50.116;8.696;2023-04-24T01:23:21;99026.72;;;11.66;70.55
78182;BME280;67441;50.116;8.696;2023-04-24T01:23:47;99048.59;;;11.74;70.31
78182;BME280;67441;50.116;8.696;2023-04-24T01:24:13;99082.53;;;11.97;70.03
78182;BME280;67441;50.116;8.696;2023-04-24T01:24:39;99044.22;;;11.70;70.24
78182;BME280;67441;50.116;8.696;2023-04-24T01:25:04;99083.56;;;11.88;70.69
78182;BME280;67441;50.116;8.696;2023-04-24T01:25:31;99066.94;;;11.80;70.62
78182;BME280;67441;50.116;8.696;2023-04-24T01:25:57;99082.59;;;11.94;70.46
78182;BME280;67441;50.116;8.696;2023-04-24T01:26:22;99080.94;;;11.87;70.54
78182;BME280;67441;50.116;8.696;2023-04-24T01:26:48;99073.97;;;11.81;70.36
78182;BME280;67441;50.116;8.696;2023-04-24T01:27:14;99081.84;;;11.84;70.47
78182;BME280;67441;50.116;8.696;2023-04-24T01:27:39;99074.81;;;11.83;70.61
78182;BME280;67441;50.116;8.696;2023-04-24T01:28:05;99077.44;;;11.83;70.80
78182;BME280;67441;50.116;8.696;2023-04-24T01:28:31;99073.06;;;11.84;70.81
78182;BME280;67441;50.116;8.696;2023-04-24T01:28:56;99071.34;;;11.81;70.62
78182;BME280;67441;50.116;8.696;2023-04-24T01:29:22;99041.75;;;11.59;70.80
78182;BME280;67441;50.116;8.696;2023-04-24T01:29:49;99053.88;;;11.74;70.70
78182;BME280;67441;50.116;8.696;2023-04-24T01:30:17;99065.16;;;11.84;70.49
78182;BME280;67441;50.116;8.696;2023-04-24T01:30:43;99043.31;;;11.73;70.45
78182;BME280;67441;50.116;8.696;2023-04-24T01:31:09;99085.31;;;11.89;70.22
78182;BME280;67441;50.116;8.696;2023-04-24T01:31:34;99081.72;;;11.94;70.41
78182;BME280;67441;50.116;8.696;2023-04-24T01:32:00;99057.25;;;11.81;70.43
78182;BME280;67441;50.116;8.696;2023-04-24T01:32:25;99082.63;;;11.91;70.62
78182;BME280;67441;50.116;8.696;2023-04-24T01:32:52;99065.19;;;11.79;70.73
78182;BME280;67441;50.116;8.696;2023-04-24T01:33:20;99062.66;;;11.73;70.59
78182;BME280;67441;50.116;8.696;2023-04-24T01:33:47;99082.66;;;11.89;70.80
78182;BME280;67441;50.116;8.696;2023-04-24T01:34:13;99090.56;;;11.88;70.94
78182;BME280;67441;50.116;8.696;2023-04-24T01:34:40;99076.56;;;11.83;nan
78182;BME280;67441;50.116;8.696;2023-04-24T01:35:09;99067.84;;;11.79;70.73
78182;BME280;67441;50.116;8.696;2023-04-24T01:35:35;99080.81;;;11.96;70.42
78182;BME280;67441;50.116;8.696;2023-04-24T01:36:02;99060.78;;;11.81;70.33
78182;BME280;67441;50.116;8.696;2023-04-24T01:36:28;99082.63;;;11.91;70.51
78182;BME280;67441;50.116;8.696;2023-04-24T01:36:56;99066.91;;;11.85;70.73
78182;BME280;67441;50.116;8.696;2023-04-24T01:37:21;99080.84;;;11.93;70.54
78182;BME280;67441;50.116;8.696;2023-04-24T01:37:47;99015.47;;;11.53;70.47
78182;BME280;67441;50.116;8.696;2023-04-24T01:38:13;99084.44;;;11.87;70.64
78182;BME280;67441;50.116;8.696;2023-04-24T01:38:39;99049.66;;;11.59;70.87
78182;BME280;67441;50.116;8.696;2023-04-24T01:39:05;99080.19;;;11.76;71.06
78182;BME280;67441;50.116;8.696;2023-04-24T01:39:31;99061.97;;;11.59;71.36
78182;BME280;67441;50.116;8.696;2023-04-24T01:40:01;99081.97;;;11.74;71.29
78182;BME280;67441;50.116;8.696;2023-04-24T01:40:29;99079.44;;;11.66;71.48
78182;BME280;67441;50.116;8.696;2023-04-24T01:40:54;99089.94;;;11.69;71.04
78182;BME280;67441;50.116;8.696;2023-04-24T01:41:20;99063.78;;;11.55;71.33
78182;BME280;67441;50.116;8.696;2023-04-24T01:41:46;99081.25;;;11.64;71.75
78182;BME280;67441;50.116;8.696;2023-04-24T01:42:13;99048.91;;;11.51;71.38
78182;BME280;67441;50.116;8.696;2023-04-24T01:42:40;99059.31;;;11.62;71.02
78182;BME280;67441;50.116;8.696;2023-04-24T01:43:06;99059.31;;;11.62;71.43
78182;BME280;67441;50.116;8.696;2023-04-24T01:43:32;99091.53;;;11.81;71.43
78182;BME280;67441;50.116;8.696;2023-04-24T01:43:58;99044.34;;;11.64;71.33
78182;BME280;67441;50.116;8.696;2023-04-24T01:44:24;99016.38;;;11.54;70.95
78182;BME280;67441;50.116;8.696;2023-04-24T01:44:49;99084.47;;;11.83;71.00
78182;BME280;67441;50.116;8.696;2023-04-24T01:45:16;99029.72;;;11.41;71.11
78182;BME280;67441;50.116;8.696;2023-04-24T01:45:42;99084.63;;;11.72;71.40
78182;BME280;67441;50.116;8.696;2023-04-24T01:46:08;99061.97;;;11.60;71.19
78182;BME280;67441;50.116;8.696;2023-04-24T01:46:34;99060.25;;;11.58;71.42
78182;BME280;67441;50.116;8.696;2023-04-24T01:47:01;99065.44;;;11.62;71.33
78182;BME280;67441;50.116;8.696;2023-04-24T01:47:26;99091.53;;;11.81;71.26
78182;BME280;67441;50.116;8.696;2023-04-24T01:47:52;99089.00;;;11.75;71.09
78182;BME280;67441;50.116;8.696;2023-04-24T01:48:17;99085.47;;;11.76;71.36
78182;BME280;67441;50.116;8.696;2023-04-24T01:48:45;99062.00;;;11.56;71.71
78182;BME280;67441;50.116;8.696;2023-04-24T01:49:11;99091.69;;;11.72;71.88
78182;BME280;67441;50.116;8.696;2023-04-24T01:49:37;99090.81;;;11.70;71.49
78182;BME280;67441;50.116;8.696;2023-04-24T01:50:04;99094.38;;;11.65;71.63
78182;BME280;67441;50.116;8.696;2023-04-24T01:50:30;99046.47;;;11.37;72.04
78182;BME280;67441;50.116;8.696;2023-04-24T01:50:56;99087.44;;;11.61;72.04
78182;BME280;67441;50.116;8.696;2023-04-24T01:51:22;99090.03;;;11.63;71.86
78182;BME280;67441;50.116;8.696;2023-04-24T01:51:48;99026.44;;;11.26;71.97
78182;BME280;67441;50.116;8.696;2023-04-24T01:52:13;99091.66;;;11.75;71.66
78182;BME280;67441;50.116;8.696;2023-04-24T01:52:39;99091.59;;;11.78;71.71
78182;BME280;67441;50.116;8.696;2023-04-24T01:53:05;99095.94;;;11.82;71.48
78182;BME280;67441;50.116;8.696;2023-04-24T01:53:30;99098.72;;;11.71;71.51
78182;BME280;67441;50.116;8.696;2023-04-24T01:53:56;99083.88;;;11.64;71.83
78182;BME280;67441;50.116;8.696;2023-04-24T01:54:22;99041.19;;;11.36;71.55
78182;BME280;67441;50.116;8.696;2023-04-24T01:54:48;99069.88;;;11.60;71.75
78182;BME280;67441;50.116;8.696;2023-04-24T01:55:13;99047.22;;;11.46;72.05
78182;BME280;67441;50.116;8.696;2023-04-24T01:55:39;99089.19;;;11.61;71.94
78182;BME280;67441;50.116;8.696;2023-04-24T01:56:05;99063.00;;;11.50;71.92
78182;BME280;67441;50.116;8.696;2023-04-24T01:56:33;99088.28;;;11.62;72.15
78182;BME280;67441;50.116;8.696;2023-04-24T01:57:02;99049.94;;;11.41;72.27
78182;BME280;67441;50.116;8.696;2023-04-24T01:57:27;99083.81;;;11.69;71.82
78182;BME280;67441;50.116;8.696;2023-04-24T01:57:56;99062.09;;;11.50;71.97
78182;BME280;67441;50.116;8.696;2023-04-24T01:58:22;99087.38;;;11.64;71.87
78182;BME280;67441;50.116;8.696;2023-04-24T01:58:52;99082.94;;;11.66;71.90
78182;BME280;67441;50.116;8.696;2023-04-24T01:59:20;99092.53;;;11.72;71.56
78182;BME280;67441;50.116;8.696;2023-04-24T01:59:47;99033.38;;;11.33;71.76
78182;BME280;67441;50.116;8.696;2023-04-24T02:00:12;99078.50;;;11.70;71.72
78182;BME280;67441;50.116;8.696;2023-04-24T02:00:38;99023.66;;;11.36;71.65
78182;BME280;67441;50.116;8.696;2023-04-24T02:01:03;99085.50;;;11.74;71.59
78182;BME280;67441;50.116;8.696;2023-04-24T02:01:35;99068.88;;;11.69;71.55
78182;BME280;67441;50.116;8.696;2023-04-24T02:02:03;99081.09;;;11.75;71.67
78182;BME280;67441;50.116;8.696;2023-04-24T02:02:29;99081.03;;;11.79;71.39
78182;BME280;67441;50.116;8.696;2023-04-24T02:02:55;99060.91;;;11.71;71.34
78182;BME280;67441;50.116;8.696;2023-04-24T02:03:20;99071.41;;;11.75;71.15
78182;BME280;67441;50.116;8.696;2023-04-24T02:03:46;99079.34;;;11.74;71.60
78182;BME280;67441;50.116;8.696;2023-04-24T02:04:12;99074.97;;;11.74;71.26
78182;BME280;67441;50.116;8.696;2023-04-24T02:04:39;99069.78;;;11.66;71.66
78182;BME280;67441;50.116;8.696;2023-04-24T02:05:06;99057.56;;;11.59;71.49
78182;BME280;67441;50.116;8.696;2023-04-24T02:05:32;99040.94;;;11.57;71.41
78182;BME280;67441;50.116;8.696;2023-04-24T02:05:58;99081.84;;;11.86;71.40
78182;BME280;67441;50.116;8.696;2023-04-24T02:06:24;99083.56;;;11.87;71.38
78182;BME280;67441;50.116;8.696;2023-04-24T02:06:49;99085.34;;;11.83;71.14
78182;BME280;67441;50.116;8.696;2023-04-24T02:07:15;99058.44;;;11.61;71.55
78182;BME280;67441;50.116;8.696;2023-04-24T02:07:41;99070.56;;;11.75;71.48
78182;BME280;67441;50.116;8.696;2023-04-24T02:08:06;99037.50;;;11.49;71.49
78182;BME280;67441;50.116;8.696;2023-04-24T02:08:32;99081.09;;;11.75;71.77
78182;BME280;67441;50.116;8.696;2023-04-24T02:08:58;99038.38;;;11.50;71.67
78182;BME280;67441;50.116;8.696;2023-04-24T02:09:24;99074.91;;;11.76;71.38
78182;BME280;67441;50.116;8.696;2023-04-24T02:09:53;99063.47;;;11.77;71.57
78182;BME280;67441;50.116;8.696;2023-04-24T02:10:19;99057.53;;;11.64;71.57
78182;BME280;67441;50.116;8.696;2023-04-24T02:10:44;99080.22;;;11.74;71.57
78182;BME280;67441;50.116;8.696;2023-04-24T02:11:10;99087.19;;;11.78;71.57
78182;BME280;67441;50.116;8.696;2023-04-24T02:11:36;99074.88;;;11.79;71.17
78182;BME280;67441;50.116;8.696;2023-04-24T02:12:01;99047.91;;;11.60;71.13
78182;BME280;67441;50.116;8.696;2023-04-24T02:12:27;99075.78;;;11.78;71.27
78182;BME280;67441;50.116;8.696;2023-04-24T02:12:53;99081.84;;;11.83;71.31
78182;BME280;67441;50.116;8.696;2023-04-24T02:13:19;99081.88;;;11.81;71.06
78182;BME280;67441;50.116;8.696;2023-04-24T02:13:44;99084.47;;;11.86;71.09
78182;BME280;67441;50.116;8.696;2023-04-24T02:14:10;99076.72;;;11.72;71.12
78182;BME280;67441;50.116;8.696;2023-04-24T02:14:35;99024.41;;;11.45;71.33
78182;BME280;67441;50.116;8.696;2023-04-24T02:15:03;99073.19;;;11.73;71.45
78182;BME280;67441;50.116;8.696;2023-04-24T02:15:29;99081.97;;;11.75;70.96
78182;BME280;67441;50.116;8.696;2023-04-24T02:15:55;99070.63;;;11.69;71.05
78182;BME280;67441;50.116;8.696;2023-04-24T02:16:21;99060.16;;;11.62;71.13
78182;BME280;67441;50.116;8.696;2023-04-24T02:16:46;99082.78;;;11.77;70.99
78182;BME280;67441;50.116;8.696;2023-04-24T02:17:12;99078.47;;;11.73;70.98
78182;BME280;67441;50.116;8.696;2023-04-24T02:17:38;99026.13;;;11.46;70.83
78182;BME280;67441;50.116;8.696;2023-04-24T02:18:03;99080.16;;;11.77;70.91
78182;BME280;67441;50.116;8.696;2023-04-24T02:18:29;99064.66;;;11.57;71.18
78182;BME280;67441;50.116;8.696;2023-04-24T02:18:55;99078.56;;;11.65;71.19
78182;BME280;67441;50.116;8.696;2023-04-24T02:19:21;99047.22;;;11.46;71.54
78182;BME280;67441;50.116;8.696;2023-04-24T02:19:46;99082.06;;;11.68;71.50